createdAt,value
2018-01-06T00:04:35.642Z,92.70
2018-01-06T00:15:21.800Z,92.70
2018-01-06T00:25:45.539Z,92.30
2018-01-06T00:30:48.091Z,92.10
2018-01-06T00:35:50.634Z,92.10
2018-01-06T00:40:54.014Z,92.00
2018-01-06T00:45:57.351Z,92.40
2018-01-06T00:51:00.674Z,92.80
2018-01-06T00:56:03.968Z,92.80
2018-01-06T01:01:06.514Z,92.80
2018-01-06T01:06:09.053Z,92.90
2018-01-06T01:11:15.747Z,92.90
2018-01-06T01:16:36.592Z,92.90
2018-01-06T01:21:39.253Z,93.10
2018-01-06T01:26:41.785Z,93.20
2018-01-06T01:31:44.359Z,93.20
2018-01-06T01:36:46.945Z,93.30
2018-01-06T01:41:49.482Z,93.20
2018-01-06T01:46:52.798Z,93.20
2018-01-06T01:51:56.121Z,93.10
2018-01-06T01:56:59.451Z,93.00
2018-01-06T02:02:02.018Z,93.00
2018-01-06T02:07:04.584Z,92.70
2018-01-06T02:12:07.635Z,92.70
2018-01-06T02:17:10.203Z,92.60
2018-01-06T02:22:12.747Z,92.40
2018-01-06T02:27:15.311Z,92.30
2018-01-06T02:32:17.868Z,92.20
2018-01-06T02:37:20.414Z,92.20
2018-01-06T02:42:22.987Z,92.00
2018-01-06T02:47:25.559Z,91.90
2018-01-06T02:52:28.130Z,92.00
2018-01-06T02:57:30.692Z,92.50
2018-01-06T03:02:33.277Z,92.20
2018-01-06T03:07:35.851Z,92.20
2018-01-06T03:12:38.411Z,92.70
2018-01-06T03:17:40.962Z,92.80
2018-01-06T03:22:43.521Z,93.30
2018-01-06T03:27:46.073Z,93.30
2018-01-06T03:32:48.632Z,93.30
2018-01-06T03:37:51.939Z,93.10
2018-01-06T03:42:54.523Z,93.10
2018-01-06T03:47:57.124Z,92.90
2018-01-06T03:52:59.706Z,92.90
2018-01-06T03:58:02.258Z,92.80
2018-01-06T04:03:04.844Z,92.90
2018-01-06T04:08:08.165Z,92.70
2018-01-06T04:13:11.494Z,92.80
2018-01-06T04:18:14.049Z,92.80
2018-01-06T04:23:16.614Z,92.80
2018-01-06T04:28:19.179Z,92.90
2018-01-06T04:33:22.177Z,92.80
2018-01-06T04:38:24.722Z,92.90
2018-01-06T04:43:27.291Z,92.90
2018-01-06T04:48:29.860Z,92.90
2018-01-06T04:53:32.434Z,93.00
2018-01-06T04:58:34.991Z,93.10
2018-01-06T05:08:57.735Z,93.30
2018-01-06T05:14:00.295Z,93.30
2018-01-06T05:19:02.855Z,93.30
2018-01-06T05:24:05.418Z,93.40
2018-01-06T05:29:07.974Z,93.30
2018-01-06T05:34:10.520Z,93.40
2018-01-06T05:39:13.083Z,93.40
2018-01-06T05:44:16.098Z,93.50
2018-01-06T05:49:18.652Z,93.50
2018-01-06T05:54:21.210Z,93.30
2018-01-06T05:59:23.781Z,93.20
2018-01-06T06:04:40.288Z,93.40
2018-01-06T06:09:57.719Z,93.40
2018-01-06T06:15:10.142Z,93.50
2018-01-06T06:25:28.710Z,93.20
2018-01-06T06:30:31.246Z,93.40
2018-01-06T06:35:41.695Z,93.40
2018-01-06T06:40:53.629Z,93.30
2018-01-06T06:51:15.716Z,93.30
2018-01-06T06:56:24.874Z,93.20
2018-01-06T07:07:02.150Z,93.40
2018-01-06T07:12:04.796Z,93.20
2018-01-06T07:17:07.351Z,93.10
2018-01-06T07:22:09.907Z,93.00
2018-01-06T07:27:13.231Z,93.10
2018-01-06T07:32:45.629Z,93.00
2018-01-06T07:37:48.836Z,93.00
2018-01-06T07:42:51.402Z,93.00
2018-01-06T07:47:53.954Z,92.90
2018-01-06T07:52:56.511Z,92.80
2018-01-06T08:03:30.845Z,92.60
2018-01-06T08:08:46.324Z,92.50
2018-01-06T08:14:00.589Z,92.40
2018-01-06T08:19:17.976Z,92.70
2018-01-06T08:29:53.619Z,92.90
2018-01-06T08:35:12.795Z,92.60
2018-01-06T08:45:35.155Z,93.00
2018-01-06T08:51:11.468Z,93.20
2018-01-06T09:12:24.200Z,93.20
2018-01-06T09:23:03.073Z,93.30
2018-01-06T09:28:15.690Z,93.20
2018-01-06T09:33:35.270Z,93.10
2018-01-06T09:38:51.742Z,93.10
2018-01-06T09:44:09.994Z,93.00
2018-01-06T09:49:30.089Z,92.60
2018-01-06T09:54:57.749Z,92.60
2018-01-06T10:11:07.088Z,92.40
2018-01-06T10:16:18.209Z,92.40
2018-01-06T10:26:49.146Z,92.00
2018-01-06T10:32:06.262Z,92.00
2018-01-06T10:37:24.858Z,92.10
2018-01-06T10:42:35.486Z,92.00
2018-01-06T10:47:46.656Z,91.90
2018-01-06T11:15:30.563Z,91.80
2018-01-06T11:20:43.685Z,91.80
2018-01-06T11:26:05.519Z,91.70
2018-01-06T11:31:17.851Z,91.70
2018-01-06T11:52:56.947Z,91.60
2018-01-06T11:58:12.896Z,91.60
2018-01-06T12:03:26.703Z,91.60
2018-01-06T12:08:40.028Z,91.40
2018-01-06T12:19:19.263Z,91.40
2018-01-06T12:35:24.783Z,91.30
2018-01-06T12:46:06.162Z,91.30
2018-01-06T12:51:28.909Z,91.40
2018-01-06T13:13:02.637Z,91.30
2018-01-06T13:18:23.739Z,91.30
2018-01-06T13:23:37.054Z,91.20
2018-01-06T13:28:46.976Z,91.30
2018-01-06T13:34:01.605Z,91.20
2018-01-06T13:39:30.276Z,91.10
2018-01-06T13:44:44.225Z,91.10
2018-01-06T13:55:15.908Z,90.70
2018-01-06T14:00:30.630Z,91.00
2018-01-06T14:05:51.668Z,90.90
2018-01-06T14:11:19.290Z,90.80
2018-01-06T14:47:50.797Z,90.80
2018-01-06T14:53:17.338Z,90.70
2018-01-06T14:58:20.193Z,90.50
2018-01-06T15:31:16.299Z,90.50
2018-01-06T15:36:18.979Z,90.50
2018-01-06T15:41:21.569Z,90.50
2018-01-06T15:46:24.169Z,90.50
2018-01-06T15:51:26.762Z,90.50
2018-01-06T15:56:29.362Z,90.50
2018-01-06T16:01:32.693Z,90.60
2018-01-06T16:06:35.314Z,90.60
2018-01-06T16:11:38.669Z,90.60
2018-01-06T16:16:41.356Z,90.50
2018-01-06T16:21:43.980Z,90.50
2018-01-06T16:26:46.551Z,90.50
2018-01-06T16:31:49.194Z,90.40
2018-01-06T16:36:51.747Z,90.40
2018-01-06T16:41:54.323Z,90.30
2018-01-06T16:46:56.928Z,90.30
2018-01-06T16:52:00.292Z,90.30
2018-01-06T16:57:02.919Z,90.30
2018-01-06T17:02:05.536Z,90.20
2018-01-06T17:07:08.132Z,90.20
2018-01-06T17:12:10.742Z,90.20
2018-01-06T17:17:13.347Z,90.10
2018-01-06T17:22:15.981Z,90.10
2018-01-06T17:27:18.522Z,90.10
2018-01-06T17:32:21.109Z,90.10
2018-01-06T17:37:23.750Z,90.10
2018-01-06T17:42:27.134Z,90.00
2018-01-06T17:47:29.791Z,90.00
2018-01-06T17:52:32.389Z,90.10
2018-01-06T17:57:35.748Z,90.10
2018-01-06T18:02:38.364Z,90.10
2018-01-06T18:07:41.090Z,90.00
2018-01-06T18:12:43.678Z,90.10
2018-01-06T18:17:46.289Z,90.00
2018-01-06T18:22:48.879Z,90.10
2018-01-06T18:27:51.491Z,90.00
2018-01-06T18:32:54.113Z,90.00
2018-01-06T18:37:56.751Z,90.00
2018-01-06T18:42:59.412Z,90.00
2018-01-06T18:48:02.059Z,90.10
2018-01-06T18:53:04.700Z,90.10
2018-01-06T18:58:07.257Z,90.10
2018-01-06T19:03:09.826Z,90.10
2018-01-06T19:08:12.482Z,90.20
2018-01-06T19:13:15.135Z,90.20
2018-01-06T19:18:17.970Z,90.20
2018-01-06T19:23:20.486Z,90.20
2018-01-06T19:28:23.068Z,90.20
2018-01-06T19:33:25.702Z,90.20
2018-01-06T19:38:28.298Z,90.20
2018-01-06T19:43:30.859Z,90.20
2018-01-06T19:48:33.477Z,90.10
2018-01-06T19:53:36.058Z,90.10
2018-01-06T19:58:38.636Z,90.20
2018-01-06T20:03:42.016Z,90.20
2018-01-06T20:08:44.624Z,90.20
2018-01-06T20:13:47.240Z,90.20
2018-01-06T20:18:49.883Z,90.20
2018-01-06T20:23:52.463Z,90.30
2018-01-06T20:28:55.855Z,90.20
2018-01-06T20:33:58.438Z,90.20
2018-01-06T20:39:01.038Z,90.40
2018-01-06T20:44:03.643Z,90.40
2018-01-06T20:49:06.283Z,90.50
2018-01-06T20:54:09.653Z,90.50
2018-01-06T20:59:12.260Z,90.50
2018-01-06T21:04:14.838Z,90.50
2018-01-06T21:09:17.431Z,90.70
2018-01-06T21:14:20.037Z,90.80
2018-01-06T21:19:23.404Z,90.80
2018-01-06T21:24:25.959Z,90.80
2018-01-06T21:29:28.554Z,90.90
2018-01-06T21:34:31.148Z,90.90
2018-01-06T21:39:33.715Z,91.00
2018-01-06T21:44:37.078Z,91.00
2018-01-06T21:49:39.705Z,91.00
2018-01-06T21:54:42.354Z,91.00
2018-01-06T21:59:44.921Z,90.90
2018-01-06T22:04:47.563Z,91.10
2018-01-06T22:09:50.130Z,91.10
2018-01-06T22:14:52.742Z,91.00
2018-01-06T22:19:55.373Z,91.20
2018-01-06T22:24:57.951Z,91.10
2018-01-06T22:30:01.275Z,91.20
2018-01-06T22:35:03.844Z,91.10
2018-01-06T22:40:06.428Z,91.30
2018-01-06T22:45:09.011Z,91.30
2018-01-06T22:50:11.603Z,91.20
2018-01-06T22:55:14.222Z,91.30
2018-01-06T23:00:16.814Z,91.20
2018-01-06T23:05:19.374Z,91.20
2018-01-06T23:10:22.728Z,91.40
2018-01-06T23:15:25.321Z,91.40
2018-01-06T23:20:27.918Z,91.30
2018-01-06T23:25:30.538Z,91.40
2018-01-06T23:30:33.123Z,91.40
2018-01-06T23:35:35.785Z,91.40
2018-01-06T23:40:38.389Z,91.40
2018-01-06T23:45:41.003Z,91.40
2018-01-06T23:50:44.370Z,91.40
2018-01-06T23:55:47.014Z,91.40
